Type in a Steem user's name to view a breakdown of their voting activity.
Data is currently available for 50623 active accounts.
Data period: 09-02-2019 - 14-02-2019.

faithfullwills
Vote Rank #: 523
Score: 55.433
% of Self-Votes: 0%
Top Category: life (43)

Steem Power: 0.101
+ Delegated IN: 14.974
- Delegated OUT: 0
Effective SP: 15.075
Vote Counts
# Accounts Voted For203
Up-Votes Made256
Down-Votes Made0
Vote Values
Total Value of Votes Made (SBD)$0.008
Vote Value To Authors - inc. Self-Votes (SBD)$0.006
Vote Value to Curators (SBD)$0.002
Value of Self-Votes (SBD)$0
Value of Votes for Others (SBD)$0.008
Reputations Voted For
0-25 Rep. Accounts Voted For0 (0%)
25-50 Rep. Accounts Voted For23 (8.98%)
50-75 Rep. Accounts Voted For231 (90.23%)
75+ Rep. Accounts Voted For2 (0.78%)
Categories Voted ForVotes CastVote Value (SBD)

Votes Made By This Account For Posts & Comments

Timestamp
(Click to View Post/Comment)
AuthorCategoriesNET # of Votes (+/-)Total Payout (SBD)This Vote's Payout %Value To Author (SBD)Value To Curators (SBD)Vote Value (SBD)Author Reputation
12019-02-14 10:44:45@coyotelationlife, pt, esteem, blog, steemit168$3.7240%$0$0$059.206
22019-02-14 10:44:42@matheusggrdlike, dlike-pt, news, pt, politics, partiko112$3.4510%$0$0$063.246
32019-02-14 10:44:27@wagnertamanahaappics, pt, jardinagem, purpose, verdequevolta196$0.8670%$0$0$061.39
42019-02-14 09:20:30@gunnarheilmannntopaz, photofeed, photocircle, artzone, lightpainting319$4.3630%$0$0$058.655
52019-02-14 09:19:27@glenalbrethsensteempress, freewrite, creativty, writing, life318$2.2930%$0$0$063.484
62019-02-14 09:19:09@thekitchenfairyfruitsandveggiesmonday, powerhousecreatives, steemitmamas, teamgood, adsactly473$5.0530%$0$0$063.443
72019-02-14 07:30:48@saqibnoorlove, life, story, fiction, valentines1584$12.1930%$0$0$049.01
82019-02-14 07:14:33@moncia90ita, music, entertainment, sound, wafrica, partiko280$2.7850%$0$0$065.065
92019-02-14 06:55:24@verasjpartiko, story, steemxp, teammalaysia, life, love205$1.5270%$0$0$062.449
102019-02-14 06:37:54@axemanactifit, contest, photogoraphy, sportphotography, crowdmind158$2.3290%$0$0$071.083
112019-02-14 06:36:51@viperblckzdcr, decred, cryptocurrency, bitcoin, crypto275$0.7070%$0$0$056.948
122019-02-14 05:25:03@khairulzamancn-malaysia, cn-stem, steemstem, cn-reader, cn, partiko281$4.220%$0$0$058.493
132019-02-14 04:57:06@coloringishipart, artzone, elegance, teammalaysia, steempress185$4.2790%$0$0$064.147
142019-02-14 04:33:27@zamifarateammalaysia, steemxp, family, life, partiko158$1.3670%$0$0$059.702
152019-02-14 03:48:09@the01crowgame, drugwars, tutorial, steem357$1.5650%$0$0$060.252
162019-02-14 03:47:39@binkyprodfiction, writing, story, starwars, original213$1.4660%$0$0$062.898
172019-02-14 02:53:33@isakostntopaz, ita, drawing, photography, travel312$1.8350%$0$0$061.702
182019-02-14 02:14:12@rakushasustory, horror, fiction, writing741$10.6680%$0$0$054.064
192019-02-14 01:52:21@maribelfspanish, stem-espanol, steemstem, cervantes, entropia303$3.0440%$0$0$053.497
202019-02-14 01:25:27@roveanaartzone, ocd-resteem, art, blog, spanish149$0.750%$0$0$052.933
212019-02-14 01:24:15@negromatecervantes, art, provenezuela, venezuela, nature276$2.1760%$0$0$044.671
222019-02-14 01:22:51@leitmotivdtube, music, piano, video, artzone273$2.6660%$0$0$054.022
232019-02-14 01:20:42@marriakjozhespanish, cervantes, literatura, historia, arte282$0.7960%$0$0$043.381
242019-02-14 00:49:36@iamjadelinefreewrite, teammalaysia, powerhousecreatives, steemitmamas, thealliance450$3.7030%$0$0$066.386
252019-02-13 23:01:42@cheahfiction, cyberpunk, horror, isleofwrite, steempulp948$12.720%$0$0$066.458
262019-02-13 22:38:00@ikchrissteemstem, stemng, electricity, wafrica, steemiteducation528$17.6880%$0$0$056.984
272019-02-13 22:13:21@anettaphotography, photofeed, pl-fotografia, photocircle, photomag1118$13.0920%$0$0$051.152
282019-02-13 21:53:06@jbrehenymusic, originalvscover, vote, songs, coversong212$1.5270%$0$0$051.834
292019-02-13 21:13:57@vlietneedleworkmonday, creativity, art, needlework, powerhousecreatives277$11.9810%$0$0$055.088
302019-02-13 20:53:42@irenenavarroartspanish, cervantes, cine, castellano, ocd-reesteem263$6.5130%$0$0$058.93
312019-02-13 20:33:15@chappertrondeutsch, de-stem, biochemie, mikrobiologie, food699$28.1550%$0$0$063.275
322019-02-13 19:51:12@littlemixscience, steemstem, writing, world, blog313$2.3460%$0$0$049.533
332019-02-13 19:38:54@miroslavrcyu-stem, teamserbia, steemstem, photography632$19.7360%$0$0$064.582
342019-02-13 19:36:39@nikolanikolasteemstem, science, photography, teamserbia809$29.9530%$0$0$066.083
352019-02-13 19:26:21@drewleyopenmic, music, piano, life, gaga238$1.5840%$0$0$062.138
362019-02-13 17:58:39@nmcdougal94ifc, universe, sci-fi, ccc, creative816$11.2960%$0$0$051.76
372019-02-13 17:36:45@marinauzelacphotofeed, music, photo, art, photography828$11.9310%$0$0$070.795
382019-02-13 17:29:24@davidke20steempress, teammalaysia, cn-malaysia, cn-sport, fitness193$2.2680%$0$0$066.396
392019-02-13 16:34:03@v1tkosteemxp, teammalaysia, life, writing, partiko188$1.470%$0$0$056.143
402019-02-13 16:19:39@ettydiallovablog, indonesia, esteem, life, whalepower135$0.9990%$0$0$063.034
412019-02-13 16:19:36@midiagamsteempress, indonesia, life, sevenfingers, story102$0.3580.01%$0$0$058.5
422019-02-13 16:19:21@mayoritawriting, indonesia, life, psychology, celotehyori113$0.8740%$0$0$052.064
432019-02-13 14:45:42@klausedart, drawing, painting, pt, ptgram, partiko103$0.1990.02%$0$0$057.231
442019-02-13 14:22:51@nattytsteemitthai, lifestyle, livingaboard, life, travel133$0.7140%$0$0$058.852
452019-02-13 14:20:57@thaiteamthai, thaiphotocontest32, photocontest, contest, steemit153$1.6940%$0$0$064.146
462019-02-13 13:38:54@steem-myanmarmyanmar, community, promotion, post148$0.9830%$0$0$063.125
472019-02-13 12:53:42@methusalemsteemiteducation, busy, teamsouthafica, life, sciencde186$00%$0$0$065.128
482019-02-13 12:53:27@edu-venezuelasteemiteducation, edu-venezuela, venezuela, cervantes, steemitbloggers255$6.910%$0$0$065.08
492019-02-13 12:44:39@aelllycn-stem, steemstem, cnstm, partiko629$20.5150%$0$0$062.907
502019-02-13 12:37:30@kchitrahlife, motivation, teammalaysia, buddyup, partiko188$1.2440%$0$0$054.999
512019-02-13 11:47:21@steemydavefiction, scifi, teamaustralia, writing, story, partiko920$12.1780%$0$0$052.781
522019-02-13 11:45:33@el-panalspanish, castellano, curacion, community, la-colmena264$0.8630%$0$0$057.281
532019-02-13 11:09:18@road2horizonita, writing, story, aforisma, amore289$15.0090%$0$0$067.547
542019-02-13 10:56:45@fundurianblog, food, life, steempress, teammalaysia186$2.3220%$0$0$064.922
552019-02-13 10:22:21@scc664fractal, photography, poetry, art, movie863$10.8630%$0$0$053.951
562019-02-13 09:58:06@fermentedphilphilosophy, steemit, africa, life, blog854$11.5350%$0$0$057.21
572019-02-13 09:57:39@fulviaperilloita, ita-story, story, ita-writing, racconto292$0.8740%$0$0$062.006
582019-02-13 09:53:24@craftsofluvsteemit, whaleshares, handmade, dses, teammalaysia176$1.2330%$0$0$050.162
592019-02-13 09:43:42@itsdatneighbourart, steemitartists, original-content, illustration, life1006$13.8080%$0$0$055.098
602019-02-13 06:44:57@rayshiuimagessteempress, collectibles, letsplay, review, photography1010$11.2510%$0$0$057.202
612019-02-13 06:14:57@blockchain360ita, writing, society, philosophy, story118$1.1750%$0$0$054.604
622019-02-13 05:50:24@joelaimonomad, teammalaysia, powerhousecreatives, photocircle, esteem246$2.4240%$0$0$059.634
632019-02-13 05:30:09@theteozart, drawing, steemmonsters, artzone, contest673$9.8310%$0$0$048.132
642019-02-13 05:19:51@maftahgaming, opgaming, steemgc, fortnite, apexlegends900$12.120%$0$0$051.43
652019-02-13 04:34:45@wilhb81cn-malaysia, cn-stem, steempress, team-cn, teammalaysia263$3.0950%$0$0$064.297
662019-02-13 04:07:06@deanliucn-stem, steemstem, cn, lottery, blockchain471$8.1380%$0$0$075.397
672019-02-13 03:29:09@freewritehousedtube, freewritehouse, onelovedtube, contests, community351$2.560%$0$0$059.849
682019-02-13 03:23:15@lilacselife, powerhousecreatives, steempress, teammalaysia, technology, partiko207$4.2090%$0$0$058.387
692019-02-13 02:30:57@bubblbubbleita, ita-cryptocurrency, socialnetwork, onesocialnetwork, blockchain264$0.6330%$0$0$053.09
702019-02-13 01:58:30@khairulzamancn-malaysia, cn-stem, steemstem, cn-reader, cn, partiko248$3.8510%$0$0$058.493
712019-02-13 01:40:24@alimamasstorylife, teammalaysia, steemitmamas, powerhousecreatives, love200$2.170%$0$0$057.444
722019-02-13 01:35:24@drago18121996ita, photography, writing, minnowsunited, life284$0.8150%$0$0$064.719
732019-02-13 01:18:51@moncia90ita, sport, sports, spi-sportit, football, partiko294$1.5180%$0$0$065.065
742019-02-13 01:04:39@serialfillermusic, ita, life, society, sanremo325$2.9020%$0$0$063.736
752019-02-12 23:39:57@nuevorico48spanish, entropia, provenezuela, cervantes, animales158$0.760%$0$0$049.029
762019-02-12 23:30:51@mad-runnerita, ita-story, story, ita-life, ita-society, partiko315$1.0120%$0$0$062.523
772019-02-12 23:15:30@cryptomarketerita, ita-game, game, nintendo258$00%$0$0$055.714
782019-02-12 22:18:39@ancoliefr, steemstem, science, francostem, qc1363$7.6440%$0$0$061.362
792019-02-12 21:53:36@nesni996art, drawing, travel, painting, teamserbia810$11.2190%$0$0$058.772
802019-02-12 21:32:39@itsdatneighboursteemitartists, art, original-content, winter, books217$2.0140%$0$0$055.098
812019-02-12 21:31:51@fermentedphilphotography, steemit, art, bread, food210$1.5440%$0$0$057.21
822019-02-12 21:15:15@ackhoomonomad, monochromes, busy, whalepower, teammalaysia281$2.8510%$0$0$065.214
832019-02-12 20:23:09@green77photofeed, ita, flags, morning, life, partiko272$1.3890%$0$0$053.011
842019-02-12 19:50:09@willphoenixmusic, something, new, phoenix182$1.5350%$0$0$046.703
852019-02-12 19:49:51@hungryharishmusic, lanadelray, art, poetry, retro, partiko182$1.5030%$0$0$048.173
862019-02-12 19:49:36@wizardzmusicdsound, music, dsound-original, dsound-drumnbass, drumnbass, trance, techno, electronic193$1.2290%$0$0$049.561
872019-02-12 19:36:48@tim-beckmusic, rockmusic, history, teamsouthafrica239$1.6250%$0$0$057.963
882019-02-12 19:07:00@spi-postitita, postit, daily-diget, spi-postit343$8.9720%$0$0$068.968
892019-02-12 17:25:21@vtravelsphotography, photofeed, photomag, pc-nature, busy206$1.9960%$0$0$062.359
902019-02-12 17:24:51@alcibiadesphotography, serbiacontest, teamserbia, streetphotography347$4.4850%$0$0$067.9
912019-02-12 16:42:42@tanlikmingdtube, cn-malaysiacn, cn-reader, teammalaysia, ocd-resteem176$3.610%$0$0$061.898
922019-02-12 16:08:45@juandvgspanish, castellano, literatura, poesia, writing264$7.6740%$0$0$052.317
932019-02-12 15:50:12@nasrudindonesia, esteem, blog, sevenfingers, writing96$0.8320%$0$0$060.207
942019-02-12 15:49:51@abduljalil.mboindonesia, esteem, share2steem, steemhunt, photograpy124$1.0110%$0$0$056.284
952019-02-12 15:47:48@coloringishipart, artzone, elegance, teammalaysia, steempress178$4.1390%$0$0$064.147
962019-02-12 15:27:54@superaudthai, thailand, story, blog154$0.7160%$0$0$041.33
972019-02-12 15:14:21@auleocn-malaysia, makemesmile, ocd-resteem, steempress, teammalaysia, partiko234$4.4730%$0$0$060.014
982019-02-12 13:44:57@formulasscience, history, mathematics, knowledge, more224$0.7070%$0$0$040.42
992019-02-12 12:56:27@guada1edu-venezuela, psychology, steemiteducation, steempress, wafrica229$1.8850%$0$0$057.281
1002019-02-12 12:36:12@xeliramsteemstem, spanish, stem-espanol, cervantes, entropia315$2.4110%$0$0$052.747
1012019-02-12 12:15:06@antigourmetpt, writing, politica, education, ocd-resteem154$4.030%$0$0$057.408
1022019-02-12 11:36:45@iamjadelinefreewrite, teammalaysia, powerhousecreatives, steemitmamas, thealliance188$2.8040%$0$0$066.386
1032019-02-12 11:31:48@viperblckzcryptocurrency, bitcoin, exchange, crypto287$0.6840%$0$0$056.948
1042019-02-12 10:46:39@spiceboyzita, sport, juventus, youtube, scorumitaliatv280$0.7560%$0$0$058.85
1052019-02-12 10:02:54@janicechuacn-malaysia, steempress, team-cn, teammalaysia, teamsingapore228$2.4640%$0$0$061.676
1062019-02-12 09:27:54@robmojosteemxp, teammalaysia, powerhousecreatives, esteem163$1.2810%$0$0$057.875
1072019-02-12 09:24:39@beverlyjoesports, steemxp, teammalaysia, football, soccer, partiko115$00.01%$0$0$061.409
1082019-02-12 09:24:24@ireenchewfreewrite, steemitmamas, teammalaysia, powerhousecreatives, thealliance143$3.5570%$0$0$061.461
1092019-02-12 09:20:09@mad-runnerita, ita-story, story, ita-life, ita-society302$0.9140%$0$0$062.523
1102019-02-12 09:14:54@jasonrussellphotocircle, photofeed, photography, water, busy350$9.7310%$0$0$067.168
1112019-02-12 07:38:45@eniolwsteemstem, stem-espanol, spanish, tecnologia, technology678$28.2370%$0$0$061.837
1122019-02-12 06:55:57@rubberduckiemomtenquestions, ulog, life, questions112$1.1780%$0$0$049.573
1132019-02-12 06:14:51@lizellefruitsandveggiesmonday, vegan, creativecrypto, adsactly, teamsouthafrica1081$12.8110%$0$0$061.873
1142019-02-12 06:02:00@armandosodanontopaz, ita, art, painting, nature348$2.2370%$0$0$062.283
1152019-02-12 05:39:15@drago18121996ita, tutorial, art, minnowsunited, life285$0.840%$0$0$064.719
1162019-02-12 05:02:24@moncia90ita, society, history, entertainment, life, partiko283$2.0750%$0$0$065.065
1172019-02-12 04:24:36@loreshapergamesstorytelling, gaming, archetypes, writing212$1.8830%$0$0$061.744
1182019-02-12 04:07:45@aelllycn-stem, steemstem, cnstm, partiko, cn550$18.4870%$0$0$062.907
1192019-02-12 03:36:15@darklandsrpg, gaming, archdruid, steemgc, games202$1.5740%$0$0$055.654
1202019-02-12 02:59:42@zaragaststeemit, ita, ita-blockchain, bitcoin, cryptocurrency288$0.9160%$0$0$064.453
1212019-02-12 02:46:57@gracefuteammalaysia, steemxp, sunset, photography, life, partiko148$1.2380%$0$0$052.043
1222019-02-12 02:42:18@hooiyewlimteammalaysia, finance, money, economy, steemit178$1.50%$0$0$060.888
1232019-02-12 01:26:42@steem-myanmarmyanmar, community, promotion, post141$1.0040%$0$0$063.125
1242019-02-12 01:10:18@jollyrogersspanish, cervantes, literatura, historia, aviacion295$1.4770%$0$0$048.692
1252019-02-12 01:09:03@nachomolinacervantes, spanish, tutoriales, fuerza-hispana, arte175$0.9070%$0$0$055.847
1262019-02-12 01:03:18@fran-afonsostem-espanol, spanish, cervantes, arte, curiosidades375$1.0290%$0$0$054.131
1272019-02-11 23:38:57@spi-postitita, postit, spi-postit, daily-digest327$8.760%$0$0$068.968
1282019-02-11 23:19:27@serialfillerwriting, ita, life, society, emotions284$2.4540%$0$0$063.736
1292019-02-11 23:09:48@sgravaleonteita, photocircle, phototalent, photography, life277$0.7790%$0$0$053.245
1302019-02-11 22:12:09@greddyforcephotography, photofeed, life, nature, mountains826$13.9310%$0$0$061.396
1312019-02-11 22:02:21@dlstudiosanime, blog, movie, legendofcrystania, lodosswar861$12.8260%$0$0$057.36
1322019-02-11 21:55:06@joshmanmanila, philippines, photography, travel, partiko841$9.8320%$0$0$054.906
1332019-02-11 21:21:48@cryptomarketerita, ita-game, game, nintendo250$0.6940%$0$0$055.714
1342019-02-11 21:19:00@fitinfunbusy, kryptonia, teammalaysia, freewrite, fitinfun249$3.0260%$0$0$067.37
1352019-02-11 21:13:42@kissfirersteempress, cn-stem, steemstem, mathematics, ocd-resteem240$1.2210%$0$0$057.886
1362019-02-11 20:24:15@richardfyatesfiction, writing, horror, art, partiko295$1.930%$0$0$056.325
1372019-02-11 18:56:51@jeanlucsrfreewrite, token, youtube, music, partiko203$00%$0$0$051.53
1382019-02-11 18:38:12@alexander.alexissteemstem, sex-differences, psychology, science, philosophy617$28.9590%$0$0$063.316
1392019-02-11 18:04:03@callunacontest, writing, questintherealms, bananafish, crowdmind392$2.3220%$0$0$061.558
1402019-02-11 17:58:06@davidke20esteem-cn, cn-malaysia, teammalaysia, cn-reader219$3.0240%$0$0$066.396
1412019-02-11 16:59:30@fitnesswoman27spanish, cervantes, cultura, historia, literatura256$7.8510%$0$0$051.669
1422019-02-11 16:50:57@veenangsteemxp, teammalaysia, grateful, life, family206$1.4410%$0$0$063.578
1432019-02-11 16:10:48@nasrudindonesia, esteem, sevenfingers, writing, blog93$0.8610%$0$0$060.207
1442019-02-11 16:10:33@teukurivalnews, indonesia, sport, football, soccer91$0.3720.01%$0$0$060.565
1452019-02-11 16:10:21@ettydiallovawriting, indonesia, esteem, life, whalepower99$0.8830%$0$0$063.034
1462019-02-11 15:42:09@magicquokkadeutsch, ameisen, ameisenhaltung, ants, haustiere246$2.2340%$0$0$054.496
1472019-02-11 15:38:27@ireenchewulog, steemitmamas, teammalaysia, powerhousecreatives, dcooperation207$2.1130%$0$0$061.461
1482019-02-11 14:56:51@poetrybyjeremybookreview, fiction, autism, writing, review1003$12.4880%$0$0$056.905
1492019-02-11 13:31:27@meow99thai, esteem, fruit, jjangjjangman, ocd-resteem293$3.0880%$0$0$064.22
1502019-02-11 12:55:27@bigbearsteemiteducation, teamsouthafrica, life, animals, science227$1.4670%$0$0$066.297
1512019-02-11 12:40:42@el-panalspanish, castellano, curacion, community, la-colmena194$0.8060%$0$0$057.281
1522019-02-11 12:32:24@senzenfrenzopenmic, music, video, life, deutsch977$13.0530%$0$0$060.06
1532019-02-11 11:17:54@iptrucsfrancostem, fr, steempress, steemalsace, qc270$2.0350%$0$0$060.67
1542019-02-11 10:50:09@fulviaperilloita, ita-contest, story, writing, theneverendingcontest270$1.4050%$0$0$062.006
1552019-02-11 10:25:36@marcelospt, brasil, brazil, dsound, musica76$0.2380.01%$0$0$044.334
1562019-02-11 10:25:33@alinypt, br, desigualdade, sociedade, psicologia88$0.3430.01%$0$0$054.571
1572019-02-11 10:17:45@gruntumonomad, monochromes, ita, photography, phototalent280$0.8110%$0$0$053.826
1582019-02-11 10:11:12@paolobenefortiart, drawing, sketch, video, sndbox335$4.1020%$0$0$069.532
1592019-02-11 08:41:33@littlenewthingslife, food, teammalaysia, partiko194$2.110%$0$0$061.049
1602019-02-11 08:10:24@donjaunmyanmar, steemit, community, life, motivation117$0.7890%$0$0$061.402
1612019-02-11 08:09:09@steem-myanmarmyanmar, community, promotion, post174$0.7770%$0$0$063.125
1622019-02-11 07:17:27@orontiusita, ita-tutorial260$0.7630%$0$0$053.282
1632019-02-11 07:00:30@chbartistlife, blog, help, steem, steemit2949$272.5110%$0$0$081.386
1642019-02-11 06:37:21@armandosodanontopaz, ita, art, painting, tasteem308$4.4870%$0$0$062.283
1652019-02-11 05:54:21@methuscomicbooks, reading, comics, scarletspider, review844$10.6220%$0$0$058.149
1662019-02-11 05:43:18@greer184the-odyssey, content, signal-to-noise, audience, youtube849$11.1370%$0$0$059.121
1672019-02-11 04:46:24@drago18121996ita, art, writing, photography, minnowsunited279$0.7950%$0$0$064.719
1682019-02-11 04:33:18@moncia90ita, food, egg, history, howto, partiko283$1.6390%$0$0$065.065
1692019-02-11 04:25:51@tanlikmingteamcn-homework, team-cn, teammalaysia, cn-reader, cn-malaysia253$3.6820%$0$0$061.898
1702019-02-11 04:20:09@serialfillermovies, ita, entertainment, review, tv, partiko307$2.0160%$0$0$063.736
1712019-02-11 03:23:27@joannewongcat, animal, pet, teammalaysia, partiko216$2.4180%$0$0$066.706
1722019-02-11 02:45:45@lupafilotaxiasteemstem, stem-espanol, spanish, ciencia, cervantes583$23.0570%$0$0$062.912
1732019-02-11 02:34:06@blueeyes8960weekendfreewrite, freewrite, thealliance, powerhousecreatives, qurator818$10.0450%$0$0$060.232
1742019-02-11 02:30:24@mad-runnerita, ita-story, story, ita-life, ita-society, partiko291$0.8750%$0$0$062.523
1752019-02-11 01:41:06@sgravaleonteita, photocircle, photography, writing, phototalent272$0.7920%$0$0$053.245
1762019-02-11 01:24:48@llfarmsmspwaves, radio, townhall, community, letstalk366$16.4920%$0$0$066.426
1772019-02-11 01:02:18@axemanntopaz, contest, photography, landscapephotography, crowdmind296$7.7460%$0$0$071.083
1782019-02-11 00:10:03@axemanphotofeed, photofriend, photography, photocircle, fashion399$8.2930%$0$0$071.083
1792019-02-10 23:21:06@kaerpediempowerhousecreatives, music, love, challenge, teammalaysia263$2.2720%$0$0$063.98
1802019-02-10 22:40:42@theycallmedansteem, author, curator599$23.9880%$0$0$068.079
1812019-02-10 22:31:24@ivan-perez-aniesspanish, castellano, serie, critica, review184$1.2710%$0$0$066.611
1822019-02-10 22:30:00@gythanobonfakspanish, equipocardumen, helpie, celf, literatura267$0.770%$0$0$045.875
1832019-02-10 21:57:09@gorangoranteamserbia, story, serbia, sport, blog391$3.4040%$0$0$057.384
1842019-02-10 21:39:39@stavrindtube, teamserbia, artzone, music, guitar-trail410$4.5670%$0$0$058.913
1852019-02-10 21:34:39@bitiesteem, photography, teamserbia, phototalent, talentclub442$3.3880%$0$0$056.995
1862019-02-10 20:18:03@el-panalspanish, castellano, curation, community, la-colmena182$0.7770%$0$0$057.281
1872019-02-10 20:08:00@khairulzamancn-malaysia, cn-stem, steemstem, cn-reader, cn, partiko235$3.6820%$0$0$058.493
1882019-02-10 19:11:39@spi-postitita, postit, daily-digest, spi-postit321$8.3220%$0$0$068.968
1892019-02-10 18:43:51@ericdubaydtube, flat, earth, jazz, music176$1.410%$0$0$049.91
1902019-02-10 18:42:48@mayoumusic, Lara, vision, dream, strong, partiko199$1.5420%$0$0$045.258
1912019-02-10 18:41:51@sketch.and.jamdtube, music, art, drums, artzone252$1.5190%$0$0$058.067
1922019-02-10 17:32:51@phage93steemstem, ita, scienze, discovery-it, itastem533$3.5940%$0$0$061.383
1932019-02-10 16:56:12@dexterdevsteemstem, computational-biophysics, molecular-dynamics, biophysics, dexterdev369$3.8940%$0$0$061.929
1942019-02-10 16:50:06@spi-sportitita, spi-sportit, sportweek, sport, sports133$0.6250.01%$0$0$047.859
1952019-02-10 16:07:12@janicechuacn-malaysia, steempress, team-cn, teammalaysia, teamsingapore272$2.9470%$0$0$061.676
1962019-02-10 15:39:30@fromageexquisite-corpse, isleofwrite, story, gardengnomepubs, speculativefiction811$10.8230%$0$0$056.689
1972019-02-10 15:11:12@davidfardsound, music, dsound-original, dsound-creative, artzone, originalmusic, blog972$11.2250%$0$0$065.624
1982019-02-10 14:42:39@sukhasanasisterrespect, suicide, death, depression, piranesi854$11.0830%$0$0$056.868
1992019-02-10 14:42:09@hooiyewlimteammalaysia, finance, money, economy, steemit168$1.3730%$0$0$060.888
2002019-02-10 13:57:18@wiseagentptmusic, pt, music, steemit, busy124$9.0380%$0$0$061.301
2012019-02-10 13:17:48@thaiteamthai, thaiphotocontest32, photocontest, contest, steemit157$2.0750%$0$0$064.146
2022019-02-10 13:01:54@beverlyjoeesteem, teammalaysia, steemxp, cny, festival221$1.5510%$0$0$061.409
2032019-02-10 12:38:18@kchitrahlove, memyvalentine, life, teammalaysia, buddyup182$1.3850%$0$0$054.999
2042019-02-10 11:50:15@ryo-6414manga, art, artzone, jingi, ocd-resteem, partiko983$11.2140%$0$0$057.882
2052019-02-10 11:40:57@ginnyannettelife, writing, family, culture, blog973$11.9860%$0$0$060.33
2062019-02-10 10:57:42@vduxcontest, haikucontest, haiku, life, newbiegames165$1.2780%$0$0$057.81
2072019-02-10 10:54:36@axemannsfw, contest, nude, crowdmind, photofriend151$0.5830.01%$0$0$071.083
2082019-02-10 10:52:48@darthgexecrowdmind, haikucontest, poetry, spanish, writing203$0.8250%$0$0$056.077
2092019-02-10 10:04:45@alidifarfallaita, life, home, hobby, homedecor165$1.4120%$0$0$046.07
2102019-02-10 09:43:48@fulviaperilloita, ita-literature, literature, ita-book, ita-review304$0.8070%$0$0$062.006
2112019-02-10 08:41:30@yhubisteemstem, stemng, biology, psychology, stach438$2.6030%$0$0$058.387
2122019-02-10 08:02:21@moncia90partiko-mentor, partiko-fan, ita, steemit, steem, partiko302$1.0440%$0$0$065.065
2132019-02-10 07:35:00@nazirullsafryteammalaysia, life, film, blog, curator155$1.3150%$0$0$055.679
2142019-02-10 07:24:06@drago18121996ita, art, writing, photography, minnowsunited280$0.7670%$0$0$064.719
2152019-02-10 06:38:42@apple96music, metal, rock, progressive, art746$12.6660%$0$0$055.838
2162019-02-10 06:21:27@romanskvdrawing, art, creativity, painting, artzone846$11.1570%$0$0$067.617
2172019-02-10 05:47:30@davidke20steempress, teammalaysia, cn-malaysia, cn-sport, fitness210$2.4110%$0$0$066.396
2182019-02-10 05:46:57@sauntertravelfeed, travel, photofeed, photomatic, ocd-resteem1414$15.7550%$0$0$060.217
2192019-02-10 05:39:39@rofilmmusic, sound, sounddesign, behringer, neutron868$11.5990%$0$0$052.146
2202019-02-10 04:23:48@wilhb81cn-malaysia, cn-reader, steempress, team-cn, teammalaysia219$2.7640%$0$0$064.297
2212019-02-10 03:39:30@allan03venezuela, spanish, avila, aventura216$8.0750%$0$0$047.504
2222019-02-10 03:32:27@armandosodanontopaz, ita, art, philosophy, literature426$1.2690%$0$0$062.283
2232019-02-10 02:56:30@zamifarateammalaysia, steemxp, steemit, theluvbug, partiko173$1.3920%$0$0$059.702
2242019-02-10 02:22:18@zebraprintstateofthedapps, gamereview, gamingdapp, infecttheworld, gaming187$17.7040%$0$0$055.578
2252019-02-10 02:21:54@bembelmaniacvimmtv, helpie-caster, steemgc, opgaming, gaming322$1.5480%$0$0$064.495
2262019-02-10 02:13:24@gamersclassifiedgaming, smashbros, piranhaplant, savefiles236$1.9820%$0$0$064.832
2272019-02-10 02:12:36@jodipamungkasdtube, dtube, gaming, steemgc, indonesia203$1.9110%$0$0$067.316
2282019-02-10 02:12:21@maelstrohmblackdtube, lol, league, youtube, nsfw193$1.0710%$0$0$055.841
2292019-02-10 02:12:06@elias15gdtube, gaming, games, steem, artzone288$1.3590%$0$0$067.272
2302019-02-10 01:50:57@retro-roomgaming, review, nintendo, steemgc, archdruid201$1.6410%$0$0$063.577
2312019-02-10 01:50:39@yosuandonidtube, gaming, steemgc, archdruid, talentclub340$1.5110%$0$0$063.293
2322019-02-10 01:48:54@freddbritogaming, games, steemgc, archdruid, retrogaming221$1.2580%$0$0$060.887
2332019-02-09 23:22:24@morangalleryart, painting, morangallery, studio, figure303$1.7970%$0$0$050.563
2342019-02-09 23:13:06@mad-runnerita, ita-story, story, ita-life, ita-society, partiko333$0.9250%$0$0$062.523
2352019-02-09 21:17:24@wnfdiarysteempress, review, blog, travel, travelfeed324$7.7990%$0$0$061.398
2362019-02-09 20:44:30@wisejgreview, horror, twd, blog, writing926$10.7980%$0$0$056.363
2372019-02-09 20:15:06@ackhoomonomad, monochromes, photography, whalepower, teammalaysia260$2.6550%$0$0$065.214
2382019-02-09 20:11:18@richardsrealityww2, abandoned, history, underground, adventure867$12.4540%$0$0$054.016
2392019-02-09 19:54:00@spi-postitita, postit, spi-postit, daily-digest340$9.1670%$0$0$068.968
2402019-02-09 19:01:48@nesmeliymusic, video, steemit, steem, busy193$1.6510%$0$0$055.049
2412019-02-09 19:01:18@mitchhoustonmusic, production, recording, engineering, audio188$1.6160%$0$0$040.65
2422019-02-09 19:01:03@tijntjemusic, musicdiscovery, msa, esteem, blog195$1.5090%$0$0$051.562
2432019-02-09 19:00:39@arcanumusic, worldoftechno, techno, electronicmusic, oldschool214$1.6650%$0$0$049.019
2442019-02-09 18:59:39@liotianewmusic, music, electronica, triphop, bitcoin220$1.6520%$0$0$040.564
2452019-02-09 18:39:18@seesladenelectricdreams, fiction, bigwaves, nigeria, wafrica203$0.980%$0$0$059.993
2462019-02-09 16:06:42@ratspencerspanish, videojuegos, cervantes, steemcg, steempress197$5.470%$0$0$053.106
2472019-02-09 16:03:45@alfredmusicdtube, pitchperfect, cervantes, spanish, curation277$1.2210%$0$0$055.281
2482019-02-09 15:10:54@el-panalspanish, castellano, curacion, community, la-colmena191$0.7790%$0$0$057.281
2492019-02-09 15:04:21@sayabentothai, thaiphotocontest32, photocontest, travel, japan143$1.2410%$0$0$060.489
2502019-02-09 15:03:48@campingkinteawthai, travel, nature, life, photography149$0.6040.01%$0$0$052.002
2512019-02-09 13:52:21@steem-myanmarmyanmar, community, promotion, post143$0.7430%$0$0$063.125
2522019-02-09 13:29:54@edmundocentenordtube, pitchperfect, curie, classical-music, votovzla, partiko869$16.7610%$0$0$057.269
2532019-02-09 13:07:03@leticiachiantiabookreview, pt, blog, biblioteca, life136$3.5160%$0$0$060.191
2542019-02-09 13:06:45@casagrandept, br, bitcoin, argentina, esteem156$3.9850%$0$0$059.028
2552019-02-09 13:06:12@a-quariuspt, blog, life, writing, love135$0.2840.01%$0$0$055.79
2562019-02-09 11:54:36@road2horizonita, writing, story, aforisma, attesa303$13.9420%$0$0$067.547